sensor_id;sensor_type;location;lat;lon;timestamp;pressure;altitude;pressure_sealevel;temperature;humidity
12897;BME280;6516;35.028;32.372;2023-05-23T00:00:35;99408.66;;;17.55;96.26
12897;BME280;6516;35.028;32.372;2023-05-23T00:03:03;99406.00;;;17.55;96.16
12897;BME280;6516;35.028;32.372;2023-05-23T00:05:31;99407.72;;;17.56;96.92
12897;BME280;6516;35.028;32.372;2023-05-23T00:08:00;99404.84;;;17.59;97.15
12897;BME280;6516;35.028;32.372;2023-05-23T00:10:27;99408.31;;;17.61;96.80
12897;BME280;6516;35.028;32.372;2023-05-23T00:12:55;99403.84;;;17.61;97.19
12897;BME280;6516;35.028;32.372;2023-05-23T00:15:25;99410.78;;;17.64;97.26
12897;BME280;6516;35.028;32.372;2023-05-23T00:17:52;99404.50;;;17.65;97.45
12897;BME280;6516;35.028;32.372;2023-05-23T00:20:20;99390.34;;;17.64;97.56
12897;BME280;6516;35.028;32.372;2023-05-23T00:22:48;99397.38;;;17.65;97.31
12897;BME280;6516;35.028;32.372;2023-05-23T00:25:17;99392.75;;;17.69;97.38
12897;BME280;6516;35.028;32.372;2023-05-23T00:27:46;99392.53;;;17.72;98.04
12897;BME280;6516;35.028;32.372;2023-05-23T00:30:14;99394.50;;;17.84;98.03
12897;BME280;6516;35.028;32.372;2023-05-23T00:32:43;99400.78;;;17.83;97.65
12897;BME280;6516;35.028;32.372;2023-05-23T00:35:11;99396.28;;;17.83;97.71
12897;BME280;6516;35.028;32.372;2023-05-23T00:37:41;99400.78;;;17.83;97.59
12897;BME280;6516;35.028;32.372;2023-05-23T00:40:10;99399.91;;;17.82;97.17
12897;BME280;6516;35.028;32.372;2023-05-23T00:42:38;99394.66;;;17.81;96.87
12897;BME280;6516;35.028;32.372;2023-05-23T00:45:07;99388.78;;;17.90;98.04
12897;BME280;6516;35.028;32.372;2023-05-23T00:47:37;99400.31;;;17.90;97.70
12897;BME280;6516;35.028;32.372;2023-05-23T00:50:08;99400.41;;;17.89;97.94
12897;BME280;6516;35.028;32.372;2023-05-23T00:52:37;99402.22;;;17.88;97.65
12897;BME280;6516;35.028;32.372;2023-05-23T00:55:06;99406.69;;;17.88;97.41
12897;BME280;6516;35.028;32.372;2023-05-23T00:57:35;99399.44;;;17.90;97.43
12897;BME280;6516;35.028;32.372;2023-05-23T01:00:06;99401.19;;;17.91;97.29
12897;BME280;6516;35.028;32.372;2023-05-23T01:02:38;99414.31;;;17.94;97.41
12897;BME280;6516;35.028;32.372;2023-05-23T01:05:10;99409.94;;;17.93;97.31
12897;BME280;6516;35.028;32.372;2023-05-23T01:07:39;99412.00;;;17.88;97.40
12897;BME280;6516;35.028;32.372;2023-05-23T01:10:08;99407.72;;;17.85;97.44
12897;BME280;6516;35.028;32.372;2023-05-23T01:12:43;99403.44;;;17.83;97.15
12897;BME280;6516;35.028;32.372;2023-05-23T01:15:19;99407.13;;;17.80;97.56
12897;BME280;6516;35.028;32.372;2023-05-23T01:17:53;99418.63;;;17.81;97.78
12897;BME280;6516;35.028;32.372;2023-05-23T01:20:27;99422.06;;;17.83;97.89
12897;BME280;6516;35.028;32.372;2023-05-23T01:26:52;99426.88;;;17.92;98.27
12897;BME280;6516;35.028;32.372;2023-05-23T01:29:34;99430.56;;;17.89;97.83
12897;BME280;6516;35.028;32.372;2023-05-23T01:32:09;99430.66;;;17.88;98.14
12897;BME280;6516;35.028;32.372;2023-05-23T01:34:39;99422.56;;;17.89;98.57
12897;BME280;6516;35.028;32.372;2023-05-23T01:37:08;99427.81;;;17.91;98.57
12897;BME280;6516;35.028;32.372;2023-05-23T01:39:39;99429.63;;;17.90;98.71
12897;BME280;6516;35.028;32.372;2023-05-23T01:42:07;99417.25;;;17.89;98.63
12897;BME280;6516;35.028;32.372;2023-05-23T01:44:37;99426.19;;;17.88;98.45
12897;BME280;6516;35.028;32.372;2023-05-23T01:47:07;99428.75;;;17.90;98.95
12897;BME280;6516;35.028;32.372;2023-05-23T01:49:37;99423.41;;;17.90;98.69
12897;BME280;6516;35.028;32.372;2023-05-23T01:52:06;99421.78;;;17.87;98.09
12897;BME280;6516;35.028;32.372;2023-05-23T01:54:36;99429.78;;;17.87;98.35
12897;BME280;6516;35.028;32.372;2023-05-23T01:57:08;99424.81;;;17.81;97.96
12897;BME280;6516;35.028;32.372;2023-05-23T01:59:38;99431.34;;;17.76;97.62
12897;BME280;6516;35.028;32.372;2023-05-23T02:02:05;99434.38;;;17.70;97.69
12897;BME280;6516;35.028;32.372;2023-05-23T02:04:34;99433.59;;;17.68;98.31
12897;BME280;6516;35.028;32.372;2023-05-23T02:07:01;99434.38;;;17.70;99.03
12897;BME280;6516;35.028;32.372;2023-05-23T02:09:29;99432.47;;;17.72;99.05
12897;BME280;6516;35.028;32.372;2023-05-23T02:11:57;99429.47;;;17.78;99.24
12897;BME280;6516;35.028;32.372;2023-05-23T02:14:25;99426.38;;;17.85;99.30
12897;BME280;6516;35.028;32.372;2023-05-23T02:16:55;99429.63;;;17.90;99.84
12897;BME280;6516;35.028;32.372;2023-05-23T02:19:22;99424.63;;;18.00;98.91
12897;BME280;6516;35.028;32.372;2023-05-23T02:21:51;99432.22;;;18.06;97.91
12897;BME280;6516;35.028;32.372;2023-05-23T02:24:19;99420.44;;;18.10;97.74
12897;BME280;6516;35.028;32.372;2023-05-23T02:26:47;99430.72;;;18.16;97.47
12897;BME280;6516;35.028;32.372;2023-05-23T02:29:14;99432.84;;;18.25;97.34
12897;BME280;6516;35.028;32.372;2023-05-23T02:31:42;99428.88;;;18.32;96.07
12897;BME280;6516;35.028;32.372;2023-05-23T02:34:11;99440.31;;;18.34;96.01
12897;BME280;6516;35.028;32.372;2023-05-23T02:36:39;99437.56;;;18.35;95.63
12897;BME280;6516;35.028;32.372;2023-05-23T02:39:07;99441.06;;;18.36;95.53
12897;BME280;6516;35.028;32.372;2023-05-23T02:41:34;99444.50;;;18.38;94.97
12897;BME280;6516;35.028;32.372;2023-05-23T02:44:03;99442.59;;;18.40;94.49
12897;BME280;6516;35.028;32.372;2023-05-23T02:46:30;99443.38;;;18.42;94.26
12897;BME280;6516;35.028;32.372;2023-05-23T02:48:58;99455.75;;;18.43;93.32
12897;BME280;6516;35.028;32.372;2023-05-23T02:51:27;99452.81;;;18.47;90.78
12897;BME280;6516;35.028;32.372;2023-05-23T02:53:56;99456.50;;;18.45;89.31
12897;BME280;6516;35.028;32.372;2023-05-23T02:56:24;99459.38;;;18.42;89.28
12897;BME280;6516;35.028;32.372;2023-05-23T02:58:52;99467.16;;;18.45;89.32
12897;BME280;6516;35.028;32.372;2023-05-23T03:01:20;99471.34;;;18.35;90.53
12897;BME280;6516;35.028;32.372;2023-05-23T03:03:48;99465.66;;;18.41;89.82
12897;BME280;6516;35.028;32.372;2023-05-23T03:06:15;99466.03;;;18.49;89.73
12897;BME280;6516;35.028;32.372;2023-05-23T03:08:45;99474.44;;;18.57;90.36
12897;BME280;6516;35.028;32.372;2023-05-23T03:11:13;99473.22;;;18.62;90.44
12897;BME280;6516;35.028;32.372;2023-05-23T03:13:41;99477.09;;;18.71;89.93
12897;BME280;6516;35.028;32.372;2023-05-23T03:16:09;99475.56;;;18.67;90.68
12897;BME280;6516;35.028;32.372;2023-05-23T03:18:37;99471.22;;;18.80;89.92
12897;BME280;6516;35.028;32.372;2023-05-23T03:21:06;99468.28;;;18.84;89.92
12897;BME280;6516;35.028;32.372;2023-05-23T03:23:34;99467.50;;;18.96;89.05
12897;BME280;6516;35.028;32.372;2023-05-23T03:26:04;99469.97;;;18.99;88.62
12897;BME280;6516;35.028;32.372;2023-05-23T03:28:32;99476.75;;;19.05;88.13
12897;BME280;6516;35.028;32.372;2023-05-23T03:31:00;99470.25;;;19.09;87.81
12897;BME280;6516;35.028;32.372;2023-05-23T03:33:28;99471.66;;;19.14;87.50
12897;BME280;6516;35.028;32.372;2023-05-23T03:35:56;99477.13;;;19.27;87.93
12897;BME280;6516;35.028;32.372;2023-05-23T03:38:23;99472.59;;;19.41;86.91
12897;BME280;6516;35.028;32.372;2023-05-23T03:40:51;99477.25;;;19.52;86.41
12897;BME280;6516;35.028;32.372;2023-05-23T03:43:21;99473.72;;;19.66;85.81
12897;BME280;6516;35.028;32.372;2023-05-23T03:45:49;99470.44;;;19.75;85.31
12897;BME280;6516;35.028;32.372;2023-05-23T03:48:16;99467.91;;;19.86;85.43
12897;BME280;6516;35.028;32.372;2023-05-23T03:50:45;99465.59;;;19.94;84.57
12897;BME280;6516;35.028;32.372;2023-05-23T03:53:13;99472.03;;;20.04;85.34
12897;BME280;6516;35.028;32.372;2023-05-23T03:55:41;99472.63;;;20.21;84.86
12897;BME280;6516;35.028;32.372;2023-05-23T03:58:09;99477.88;;;20.35;84.36
12897;BME280;6516;35.028;32.372;2023-05-23T04:00:38;99467.25;;;20.48;82.02
12897;BME280;6516;35.028;32.372;2023-05-23T04:03:07;99468.75;;;20.64;82.20
12897;BME280;6516;35.028;32.372;2023-05-23T04:05:36;99466.69;;;20.68;80.92
12897;BME280;6516;35.028;32.372;2023-05-23T04:08:04;99472.47;;;20.74;80.44
12897;BME280;6516;35.028;32.372;2023-05-23T04:10:33;99466.50;;;20.71;80.47
12897;BME280;6516;35.028;32.372;2023-05-23T04:13:01;99462.75;;;20.73;80.57
12897;BME280;6516;35.028;32.372;2023-05-23T04:15:29;99469.69;;;20.88;80.59
12897;BME280;6516;35.028;32.372;2023-05-23T04:18:00;99470.34;;;20.92;80.11
12897;BME280;6516;35.028;32.372;2023-05-23T04:20:29;99465.75;;;21.06;79.93
12897;BME280;6516;35.028;32.372;2023-05-23T04:22:57;99462.00;;;21.09;78.55
12897;BME280;6516;35.028;32.372;2023-05-23T04:25:25;99466.59;;;21.19;78.42
12897;BME280;6516;35.028;32.372;2023-05-23T04:27:53;99467.13;;;21.12;78.45
12897;BME280;6516;35.028;32.372;2023-05-23T04:30:21;99470.53;;;21.26;78.70
12897;BME280;6516;35.028;32.372;2023-05-23T04:32:50;99478.66;;;21.37;78.33
12897;BME280;6516;35.028;32.372;2023-05-23T04:35:21;99472.78;;;21.32;77.89
12897;BME280;6516;35.028;32.372;2023-05-23T04:37:50;99467.63;;;21.29;78.80
12897;BME280;6516;35.028;32.372;2023-05-23T04:40:21;99471.72;;;21.22;77.97
12897;BME280;6516;35.028;32.372;2023-05-23T04:42:49;99470.13;;;21.07;78.19
12897;BME280;6516;35.028;32.372;2023-05-23T04:45:17;99484.47;;;21.19;78.64
12897;BME280;6516;35.028;32.372;2023-05-23T04:47:45;99486.09;;;21.57;77.65
12897;BME280;6516;35.028;32.372;2023-05-23T04:50:13;99479.25;;;21.89;76.34
12897;BME280;6516;35.028;32.372;2023-05-23T04:52:42;99491.56;;;22.15;74.44
12897;BME280;6516;35.028;32.372;2023-05-23T04:55:11;99485.31;;;22.38;73.71
12897;BME280;6516;35.028;32.372;2023-05-23T04:57:39;99492.03;;;22.44;72.92
12897;BME280;6516;35.028;32.372;2023-05-23T05:00:07;99486.78;;;22.77;72.85
12897;BME280;6516;35.028;32.372;2023-05-23T05:02:38;99497.06;;;23.05;71.94
12897;BME280;6516;35.028;32.372;2023-05-23T05:05:06;99485.72;;;23.12;71.52
12897;BME280;6516;35.028;32.372;2023-05-23T05:07:34;99496.00;;;23.29;70.54
12897;BME280;6516;35.028;32.372;2023-05-23T05:10:05;99501.34;;;23.51;69.91
12897;BME280;6516;35.028;32.372;2023-05-23T05:12:34;99498.22;;;23.35;70.01
12897;BME280;6516;35.028;32.372;2023-05-23T05:15:02;99509.75;;;23.03;70.21
12897;BME280;6516;35.028;32.372;2023-05-23T05:17:31;99509.13;;;22.77;70.99
12897;BME280;6516;35.028;32.372;2023-05-23T05:20:01;99506.84;;;22.49;72.06
12897;BME280;6516;35.028;32.372;2023-05-23T05:22:33;99514.91;;;22.37;72.94
12897;BME280;6516;35.028;32.372;2023-05-23T05:25:01;99511.28;;;22.38;72.25
12897;BME280;6516;35.028;32.372;2023-05-23T05:27:32;99524.50;;;22.17;72.93
12897;BME280;6516;35.028;32.372;2023-05-23T05:30:03;99531.41;;;21.85;74.77
12897;BME280;6516;35.028;32.372;2023-05-23T05:32:32;99530.91;;;21.55;74.82
12897;BME280;6516;35.028;32.372;2023-05-23T05:35:00;99546.59;;;21.36;75.76
12897;BME280;6516;35.028;32.372;2023-05-23T05:37:28;99550.75;;;21.15;76.91
12897;BME280;6516;35.028;32.372;2023-05-23T05:39:55;99542.09;;;21.12;78.21
12897;BME280;6516;35.028;32.372;2023-05-23T05:42:24;99555.38;;;21.13;78.55
12897;BME280;6516;35.028;32.372;2023-05-23T05:44:53;99555.78;;;21.07;78.49
12897;BME280;6516;35.028;32.372;2023-05-23T05:47:23;99558.16;;;20.99;78.25
12897;BME280;6516;35.028;32.372;2023-05-23T05:49:50;99562.84;;;20.96;78.31
12897;BME280;6516;35.028;32.372;2023-05-23T05:52:18;99567.75;;;20.89;78.28
12897;BME280;6516;35.028;32.372;2023-05-23T05:54:46;99570.75;;;20.85;78.53
12897;BME280;6516;35.028;32.372;2023-05-23T05:57:13;99578.91;;;20.96;79.03
12897;BME280;6516;35.028;32.372;2023-05-23T05:59:41;99571.13;;;21.05;78.46
12897;BME280;6516;35.028;32.372;2023-05-23T06:02:10;99577.00;;;21.10;77.05
12897;BME280;6516;35.028;32.372;2023-05-23T06:04:38;99587.81;;;21.21;76.42
12897;BME280;6516;35.028;32.372;2023-05-23T06:07:06;99588.91;;;21.31;77.11
12897;BME280;6516;35.028;32.372;2023-05-23T06:09:34;99594.16;;;21.45;76.00
12897;BME280;6516;35.028;32.372;2023-05-23T06:12:02;99592.41;;;21.57;75.36
12897;BME280;6516;35.028;32.372;2023-05-23T06:14:30;99589.91;;;21.66;74.27
12897;BME280;6516;35.028;32.372;2023-05-23T06:16:57;99591.34;;;21.72;74.33
12897;BME280;6516;35.028;32.372;2023-05-23T06:19:27;99605.38;;;21.63;73.90
12897;BME280;6516;35.028;32.372;2023-05-23T06:21:54;99612.53;;;21.62;74.14
12897;BME280;6516;35.028;32.372;2023-05-23T06:24:22;99610.50;;;21.53;73.86
12897;BME280;6516;35.028;32.372;2023-05-23T06:26:50;99617.72;;;21.53;73.43
12897;BME280;6516;35.028;32.372;2023-05-23T06:29:18;99619.84;;;21.48;73.25
12897;BME280;6516;35.028;32.372;2023-05-23T06:31:48;99617.91;;;21.50;73.48
12897;BME280;6516;35.028;32.372;2023-05-23T06:34:16;99620.38;;;21.53;73.44
12897;BME280;6516;35.028;32.372;2023-05-23T06:36:45;99627.00;;;21.60;72.90
12897;BME280;6516;35.028;32.372;2023-05-23T06:39:13;99629.16;;;21.55;73.10
12897;BME280;6516;35.028;32.372;2023-05-23T06:41:42;99637.75;;;21.47;72.41
12897;BME280;6516;35.028;32.372;2023-05-23T06:44:10;99634.09;;;21.48;73.87
12897;BME280;6516;35.028;32.372;2023-05-23T06:46:39;99630.13;;;21.54;74.29
12897;BME280;6516;35.028;32.372;2023-05-23T06:49:23;99634.84;;;21.75;74.31
12897;BME280;6516;35.028;32.372;2023-05-23T06:51:52;99643.00;;;21.86;74.08
12897;BME280;6516;35.028;32.372;2023-05-23T06:54:20;99633.75;;;22.03;70.66
12897;BME280;6516;35.028;32.372;2023-05-23T06:56:48;99634.56;;;22.16;70.34
12897;BME280;6516;35.028;32.372;2023-05-23T06:59:16;99640.13;;;22.13;70.53
12897;BME280;6516;35.028;32.372;2023-05-23T07:01:43;99650.19;;;22.22;70.56
12897;BME280;6516;35.028;32.372;2023-05-23T07:04:11;99651.06;;;22.22;68.89
12897;BME280;6516;35.028;32.372;2023-05-23T07:06:39;99649.09;;;22.24;69.18
12897;BME280;6516;35.028;32.372;2023-05-23T07:09:08;99653.28;;;22.28;69.23
12897;BME280;6516;35.028;32.372;2023-05-23T07:11:37;99660.16;;;22.32;69.12
12897;BME280;6516;35.028;32.372;2023-05-23T07:14:05;99655.91;;;22.53;69.78
12897;BME280;6516;35.028;32.372;2023-05-23T07:16:33;99655.97;;;22.64;68.95
12897;BME280;6516;35.028;32.372;2023-05-23T07:19:01;99659.47;;;22.88;68.73
12897;BME280;6516;35.028;32.372;2023-05-23T07:21:29;99649.00;;;22.85;68.10
12897;BME280;6516;35.028;32.372;2023-05-23T07:23:57;99659.53;;;22.99;68.16
12897;BME280;6516;35.028;32.372;2023-05-23T07:26:26;99665.31;;;23.17;67.17
12897;BME280;6516;35.028;32.372;2023-05-23T07:28:54;99674.78;;;23.33;66.60
12897;BME280;6516;35.028;32.372;2023-05-23T07:31:22;99670.19;;;23.46;65.73
12897;BME280;6516;35.028;32.372;2023-05-23T07:33:50;99668.44;;;23.23;65.26
12897;BME280;6516;35.028;32.372;2023-05-23T07:36:18;99677.50;;;23.10;68.00
12897;BME280;6516;35.028;32.372;2023-05-23T07:38:47;99681.50;;;23.28;66.68
12897;BME280;6516;35.028;32.372;2023-05-23T07:41:14;99672.53;;;23.73;66.47
12897;BME280;6516;35.028;32.372;2023-05-23T07:43:43;99674.91;;;23.99;65.68
12897;BME280;6516;35.028;32.372;2023-05-23T07:46:11;99671.34;;;23.99;62.86
12897;BME280;6516;35.028;32.372;2023-05-23T07:48:39;99674.78;;;23.90;64.00
12897;BME280;6516;35.028;32.372;2023-05-23T07:51:07;99681.47;;;23.73;64.69
12897;BME280;6516;35.028;32.372;2023-05-23T07:53:35;99683.94;;;24.09;64.03
12897;BME280;6516;35.028;32.372;2023-05-23T07:56:05;99686.03;;;24.17;63.09
12897;BME280;6516;35.028;32.372;2023-05-23T07:58:33;99678.06;;;24.26;62.74
12897;BME280;6516;35.028;32.372;2023-05-23T08:01:02;99687.13;;;24.14;63.90
12897;BME280;6516;35.028;32.372;2023-05-23T08:03:30;99682.47;;;24.27;63.38
12897;BME280;6516;35.028;32.372;2023-05-23T08:05:58;99684.41;;;24.36;63.76
12897;BME280;6516;35.028;32.372;2023-05-23T08:08:25;99684.28;;;24.38;63.48
12897;BME280;6516;35.028;32.372;2023-05-23T08:10:53;99684.78;;;24.43;62.96
12897;BME280;6516;35.028;32.372;2023-05-23T08:13:21;99693.47;;;24.35;62.60
12897;BME280;6516;35.028;32.372;2023-05-23T08:15:49;99688.81;;;24.37;61.29
12897;BME280;6516;35.028;32.372;2023-05-23T08:18:18;99688.66;;;24.50;61.34
12897;BME280;6516;35.028;32.372;2023-05-23T08:20:46;99687.09;;;24.25;61.88
12897;BME280;6516;35.028;32.372;2023-05-23T08:23:13;99691.59;;;24.69;61.00
12897;BME280;6516;35.028;32.372;2023-05-23T08:25:42;99694.88;;;24.72;61.03
12897;BME280;6516;35.028;32.372;2023-05-23T08:28:10;99691.94;;;24.75;62.12
12897;BME280;6516;35.028;32.372;2023-05-23T08:30:38;99697.53;;;25.15;60.85
12897;BME280;6516;35.028;32.372;2023-05-23T08:33:07;99697.72;;;25.54;58.94
12897;BME280;6516;35.028;32.372;2023-05-23T08:35:37;99696.66;;;25.87;57.44
12897;BME280;6516;35.028;32.372;2023-05-23T08:38:06;99693.81;;;26.18;57.03
12897;BME280;6516;35.028;32.372;2023-05-23T08:40:35;99695.50;;;26.49;55.75
12897;BME280;6516;35.028;32.372;2023-05-23T08:43:03;99684.91;;;26.86;54.26
12897;BME280;6516;35.028;32.372;2023-05-23T08:45:31;99695.41;;;26.60;55.42
12897;BME280;6516;35.028;32.372;2023-05-23T08:48:00;99693.75;;;27.07;54.74
12897;BME280;6516;35.028;32.372;2023-05-23T08:50:29;99694.56;;;26.69;54.39
12897;BME280;6516;35.028;32.372;2023-05-23T08:52:58;99693.63;;;27.08;53.96
12897;BME280;6516;35.028;32.372;2023-05-23T08:55:28;99689.19;;;26.98;52.97
12897;BME280;6516;35.028;32.372;2023-05-23T08:57:57;99689.63;;;27.13;52.97
12897;BME280;6516;35.028;32.372;2023-05-23T09:00:26;99694.56;;;26.69;53.53
12897;BME280;6516;35.028;32.372;2023-05-23T09:02:54;99695.69;;;26.67;52.55
12897;BME280;6516;35.028;32.372;2023-05-23T09:05:25;99686.66;;;27.06;54.24
12897;BME280;6516;35.028;32.372;2023-05-23T09:07:53;99695.03;;;27.13;53.22
12897;BME280;6516;35.028;32.372;2023-05-23T09:10:22;99699.44;;;26.94;53.10
12897;BME280;6516;35.028;32.372;2023-05-23T09:12:54;99698.16;;;26.98;53.10
12897;BME280;6516;35.028;32.372;2023-05-23T09:15:23;99692.81;;;27.27;53.08
12897;BME280;6516;35.028;32.372;2023-05-23T09:17:51;99691.06;;;27.36;53.00
12897;BME280;6516;35.028;32.372;2023-05-23T09:20:21;99701.81;;;27.74;52.86
12897;BME280;6516;35.028;32.372;2023-05-23T09:22:48;99687.44;;;27.83;52.49
12897;BME280;6516;35.028;32.372;2023-05-23T09:25:16;99694.00;;;27.80;52.39
12897;BME280;6516;35.028;32.372;2023-05-23T09:27:45;99689.69;;;27.78;52.18
12897;BME280;6516;35.028;32.372;2023-05-23T09:30:14;99687.78;;;27.51;52.69
12897;BME280;6516;35.028;32.372;2023-05-23T09:32:42;99686.66;;;27.35;51.79
12897;BME280;6516;35.028;32.372;2023-05-23T09:35:09;99694.47;;;26.99;54.51
12897;BME280;6516;35.028;32.372;2023-05-23T09:37:40;99687.53;;;27.26;53.94
12897;BME280;6516;35.028;32.372;2023-05-23T09:40:13;99685.78;;;27.15;53.97
12897;BME280;6516;35.028;32.372;2023-05-23T09:42:41;99681.22;;;27.06;52.73
12897;BME280;6516;35.028;32.372;2023-05-23T09:45:16;99686.19;;;26.91;53.12
12897;BME280;6516;35.028;32.372;2023-05-23T09:47:48;99686.78;;;26.85;53.72
12897;BME280;6516;35.028;32.372;2023-05-23T09:50:17;99687.25;;;27.19;52.62
12897;BME280;6516;35.028;32.372;2023-05-23T09:52:45;99682.94;;;27.17;52.65
12897;BME280;6516;35.028;32.372;2023-05-23T09:55:13;99682.69;;;27.29;52.63
12897;BME280;6516;35.028;32.372;2023-05-23T09:57:42;99680.94;;;27.38;51.70
12897;BME280;6516;35.028;32.372;2023-05-23T10:00:11;99678.94;;;27.49;52.30
12897;BME280;6516;35.028;32.372;2023-05-23T10:02:54;99682.38;;;27.42;52.16
12897;BME280;6516;35.028;32.372;2023-05-23T10:05:33;99679.06;;;27.57;51.50
12897;BME280;6516;35.028;32.372;2023-05-23T10:08:07;99667.41;;;27.57;52.19
12897;BME280;6516;35.028;32.372;2023-05-23T10:14:16;99684.13;;;26.55;53.29
12897;BME280;6516;35.028;32.372;2023-05-23T10:16:54;99686.03;;;26.64;53.90
12897;BME280;6516;35.028;32.372;2023-05-23T10:19:33;99681.38;;;26.36;54.14
12897;BME280;6516;35.028;32.372;2023-05-23T10:22:06;99687.91;;;26.34;55.06
12897;BME280;6516;35.028;32.372;2023-05-23T10:24:36;99686.59;;;26.28;53.43
12897;BME280;6516;35.028;32.372;2023-05-23T10:27:06;99680.44;;;26.07;54.95
12897;BME280;6516;35.028;32.372;2023-05-23T10:29:34;99689.34;;;25.98;56.05
12897;BME280;6516;35.028;32.372;2023-05-23T10:32:05;99685.41;;;26.02;55.32
12897;BME280;6516;35.028;32.372;2023-05-23T10:34:38;99683.94;;;25.98;55.44
12897;BME280;6516;35.028;32.372;2023-05-23T10:37:11;99677.47;;;25.90;55.73
12897;BME280;6516;35.028;32.372;2023-05-23T10:39:51;99671.47;;;26.07;54.69
12897;BME280;6516;35.028;32.372;2023-05-23T10:42:33;99669.16;;;26.32;55.23
12897;BME280;6516;35.028;32.372;2023-05-23T10:45:15;99678.81;;;26.25;55.70
12897;BME280;6516;35.028;32.372;2023-05-23T10:47:46;99675.00;;;25.77;55.89
12897;BME280;6516;35.028;32.372;2023-05-23T10:50:15;99670.16;;;26.01;54.79
12897;BME280;6516;35.028;32.372;2023-05-23T10:52:58;99676.81;;;25.97;55.63
12897;BME280;6516;35.028;32.372;2023-05-23T10:55:31;99677.88;;;26.15;55.39
12897;BME280;6516;35.028;32.372;2023-05-23T10:58:08;99677.56;;;25.99;53.50
12897;BME280;6516;35.028;32.372;2023-05-23T11:00:37;99663.88;;;25.71;55.18
12897;BME280;6516;35.028;32.372;2023-05-23T11:03:08;99668.50;;;25.59;55.99
12897;BME280;6516;35.028;32.372;2023-05-23T11:05:36;99667.16;;;25.44;56.54
12897;BME280;6516;35.028;32.372;2023-05-23T11:08:12;99662.31;;;25.68;56.96
12897;BME280;6516;35.028;32.372;2023-05-23T11:10:55;99673.69;;;25.72;55.84
12897;BME280;6516;35.028;32.372;2023-05-23T11:13:40;99660.69;;;25.86;56.16
12897;BME280;6516;35.028;32.372;2023-05-23T11:16:29;99652.75;;;25.55;56.03
12897;BME280;6516;35.028;32.372;2023-05-23T11:19:32;99663.75;;;25.72;54.61
12897;BME280;6516;35.028;32.372;2023-05-23T11:22:01;99656.53;;;25.93;54.88
12897;BME280;6516;35.028;32.372;2023-05-23T11:24:47;99659.84;;;25.86;52.84
12897;BME280;6516;35.028;32.372;2023-05-23T11:27:16;99670.31;;;25.79;53.77
12897;BME280;6516;35.028;32.372;2023-05-23T11:29:56;99662.50;;;26.06;53.67
12897;BME280;6516;35.028;32.372;2023-05-23T11:32:27;99662.63;;;25.95;53.15
12897;BME280;6516;35.028;32.372;2023-05-23T11:34:59;99671.09;;;26.11;52.80
12897;BME280;6516;35.028;32.372;2023-05-23T11:37:29;99678.25;;;26.01;52.05
12897;BME280;6516;35.028;32.372;2023-05-23T11:39:57;99673.16;;;25.78;54.94
12897;BME280;6516;35.028;32.372;2023-05-23T11:42:26;99665.13;;;26.17;54.38
12897;BME280;6516;35.028;32.372;2023-05-23T11:44:54;99675.38;;;26.23;53.21
12897;BME280;6516;35.028;32.372;2023-05-23T11:47:22;99671.41;;;25.67;53.41
12897;BME280;6516;35.028;32.372;2023-05-23T11:49:50;99674.88;;;25.79;55.48
12897;BME280;6516;35.028;32.372;2023-05-23T11:52:20;99681.16;;;25.89;54.53
12897;BME280;6516;35.028;32.372;2023-05-23T11:54:48;99682.03;;;25.89;54.04
12897;BME280;6516;35.028;32.372;2023-05-23T11:57:16;99691.25;;;25.87;53.65
12897;BME280;6516;35.028;32.372;2023-05-23T11:59:44;99679.03;;;25.62;54.55
12897;BME280;6516;35.028;32.372;2023-05-23T12:02:12;99678.97;;;25.32;55.61
12897;BME280;6516;35.028;32.372;2023-05-23T12:04:39;99675.41;;;25.32;56.35
12897;BME280;6516;35.028;32.372;2023-05-23T12:07:07;99682.88;;;25.39;55.45
12897;BME280;6516;35.028;32.372;2023-05-23T12:09:43;99687.97;;;25.42;55.74
12897;BME280;6516;35.028;32.372;2023-05-23T12:12:11;99695.59;;;25.37;55.21
12897;BME280;6516;35.028;32.372;2023-05-23T12:14:40;99695.59;;;25.37;55.71
12897;BME280;6516;35.028;32.372;2023-05-23T12:17:10;99694.69;;;25.27;55.88
12897;BME280;6516;35.028;32.372;2023-05-23T12:19:38;99710.53;;;25.41;55.35
12897;BME280;6516;35.028;32.372;2023-05-23T12:22:11;99710.59;;;25.30;54.84
12897;BME280;6516;35.028;32.372;2023-05-23T12:24:45;99704.34;;;25.30;55.21
12897;BME280;6516;35.028;32.372;2023-05-23T12:27:15;99704.88;;;25.13;54.37
12897;BME280;6516;35.028;32.372;2023-05-23T12:29:49;99701.38;;;25.01;55.93
12897;BME280;6516;35.028;32.372;2023-05-23T12:32:17;99699.03;;;25.39;54.82
12897;BME280;6516;35.028;32.372;2023-05-23T12:34:45;99701.59;;;25.09;54.19
12897;BME280;6516;35.028;32.372;2023-05-23T12:37:13;99706.13;;;25.09;54.77
12897;BME280;6516;35.028;32.372;2023-05-23T12:39:42;99701.13;;;25.04;54.75
12897;BME280;6516;35.028;32.372;2023-05-23T12:42:12;99714.78;;;24.92;56.02
12897;BME280;6516;35.028;32.372;2023-05-23T12:44:40;99722.03;;;24.80;56.05
12897;BME280;6516;35.028;32.372;2023-05-23T12:47:08;99725.34;;;24.73;56.55
12897;BME280;6516;35.028;32.372;2023-05-23T12:49:36;99714.44;;;24.74;55.48
12897;BME280;6516;35.028;32.372;2023-05-23T12:52:04;99730.88;;;25.14;55.33
12897;BME280;6516;35.028;32.372;2023-05-23T12:54:32;99726.63;;;25.00;55.83
12897;BME280;6516;35.028;32.372;2023-05-23T12:57:00;99734.94;;;24.97;55.96
12897;BME280;6516;35.028;32.372;2023-05-23T12:59:29;99719.22;;;25.13;56.75
12897;BME280;6516;35.028;32.372;2023-05-23T13:01:57;99725.16;;;24.96;57.08
12897;BME280;6516;35.028;32.372;2023-05-23T13:04:26;99730.19;;;25.01;55.45
12897;BME280;6516;35.028;32.372;2023-05-23T13:06:54;99730.78;;;25.04;55.60
12897;BME280;6516;35.028;32.372;2023-05-23T13:09:21;99732.00;;;25.00;55.20
12897;BME280;6516;35.028;32.372;2023-05-23T13:11:49;99731.47;;;25.06;56.22
12897;BME280;6516;35.028;32.372;2023-05-23T13:14:17;99736.28;;;24.71;56.04
12897;BME280;6516;35.028;32.372;2023-05-23T13:16:46;99730.59;;;24.74;56.27
12897;BME280;6516;35.028;32.372;2023-05-23T13:19:14;99730.38;;;24.55;56.68